sensor_id;sensor_type;location;lat;lon;timestamp;pressure;altitude;pressure_sealevel;temperature;humidity
77869;BME280;67231;59.144;37.934;2023-12-22T00:00:56;97716.88;;;0.45;82.23
77869;BME280;67231;59.144;37.934;2023-12-22T00:03:22;97725.41;;;0.47;82.17
77869;BME280;67231;59.144;37.934;2023-12-22T00:05:48;97735.84;;;0.47;82.17
77869;BME280;67231;59.144;37.934;2023-12-22T00:08:15;97733.91;;;0.49;82.48
77869;BME280;67231;59.144;37.934;2023-12-22T00:10:41;97733.75;;;0.50;82.05
77869;BME280;67231;59.144;37.934;2023-12-22T00:13:07;97731.00;;;0.52;82.11
77869;BME280;67231;59.144;37.934;2023-12-22T00:15:34;97742.09;;;0.54;82.34
77869;BME280;67231;59.144;37.934;2023-12-22T00:18:00;97730.72;;;0.55;82.19
77869;BME280;67231;59.144;37.934;2023-12-22T00:20:27;97735.94;;;0.55;82.17
77869;BME280;67231;59.144;37.934;2023-12-22T00:22:53;97734.94;;;0.56;82.55
77869;BME280;67231;59.144;37.934;2023-12-22T00:25:19;97738.53;;;0.55;82.33
77869;BME280;67231;59.144;37.934;2023-12-22T00:27:45;97742.91;;;0.54;82.22
77869;BME280;67231;59.144;37.934;2023-12-22T00:30:12;97740.63;;;0.51;82.26
77869;BME280;67231;59.144;37.934;2023-12-22T00:32:38;97738.97;;;0.50;81.99
77869;BME280;67231;59.144;37.934;2023-12-22T00:35:05;97741.72;;;0.49;82.21
77869;BME280;67231;59.144;37.934;2023-12-22T00:37:31;97733.50;;;0.44;82.45
77869;BME280;67231;59.144;37.934;2023-12-22T00:39:57;97746.84;;;0.41;82.13
77869;BME280;67231;59.144;37.934;2023-12-22T00:42:24;97745.88;;;0.42;82.31
77869;BME280;67231;59.144;37.934;2023-12-22T00:44:51;97741.50;;;0.42;82.37
77869;BME280;67231;59.144;37.934;2023-12-22T00:47:18;97740.97;;;0.39;82.21
77869;BME280;67231;59.144;37.934;2023-12-22T00:49:44;97747.13;;;0.38;82.24
77869;BME280;67231;59.144;37.934;2023-12-22T00:52:10;97740.97;;;0.39;82.19
77869;BME280;67231;59.144;37.934;2023-12-22T00:54:37;97744.66;;;0.36;82.66
77869;BME280;67231;59.144;37.934;2023-12-22T00:57:03;97740.53;;;0.33;82.30
77869;BME280;67231;59.144;37.934;2023-12-22T00:59:30;97743.84;;;0.35;82.36
77869;BME280;67231;59.144;37.934;2023-12-22T01:01:56;97746.47;;;0.35;82.55
77869;BME280;67231;59.144;37.934;2023-12-22T01:04:22;97744.00;;;0.34;82.29
77869;BME280;67231;59.144;37.934;2023-12-22T01:06:52;97740.53;;;0.33;81.87
77869;BME280;67231;59.144;37.934;2023-12-22T01:09:19;97740.53;;;0.33;81.86
77869;BME280;67231;59.144;37.934;2023-12-22T01:11:46;97731.91;;;0.33;82.07
77869;BME280;67231;59.144;37.934;2023-12-22T01:14:12;97736.47;;;0.31;81.80
77869;BME280;67231;59.144;37.934;2023-12-22T01:16:40;97743.91;;;0.26;81.69
77869;BME280;67231;59.144;37.934;2023-12-22T01:19:06;97739.91;;;0.22;81.73
77869;BME280;67231;59.144;37.934;2023-12-22T01:21:33;97736.91;;;0.16;82.02
77869;BME280;67231;59.144;37.934;2023-12-22T01:23:59;97732.66;;;0.15;82.00
77869;BME280;67231;59.144;37.934;2023-12-22T01:26:25;97733.78;;;0.13;81.86
77869;BME280;67231;59.144;37.934;2023-12-22T01:28:51;97736.53;;;0.11;82.25
77869;BME280;67231;59.144;37.934;2023-12-22T01:31:18;97732.94;;;0.12;82.33
77869;BME280;67231;59.144;37.934;2023-12-22T01:33:45;97739.28;;;0.10;81.98
77869;BME280;67231;59.144;37.934;2023-12-22T01:36:12;97737.06;;;0.15;82.11
77869;BME280;67231;59.144;37.934;2023-12-22T01:38:38;97737.06;;;0.15;82.27
77869;BME280;67231;59.144;37.934;2023-12-22T01:41:04;97744.75;;;0.16;82.49
77869;BME280;67231;59.144;37.934;2023-12-22T01:43:31;97747.22;;;0.18;82.13
77869;BME280;67231;59.144;37.934;2023-12-22T01:45:58;97752.16;;;0.21;82.33
77869;BME280;67231;59.144;37.934;2023-12-22T01:48:26;97740.19;;;0.18;82.37
77869;BME280;67231;59.144;37.934;2023-12-22T01:50:55;97739.00;;;0.13;82.36
77869;BME280;67231;59.144;37.934;2023-12-22T01:53:23;97743.94;;;0.06;82.33
77869;BME280;67231;59.144;37.934;2023-12-22T01:55:50;97742.06;;;-0.02;81.82
77869;BME280;67231;59.144;37.934;2023-12-22T01:58:19;97745.91;;;-0.06;82.30
77869;BME280;67231;59.144;37.934;2023-12-22T02:00:46;97749.47;;;-0.07;82.15
77869;BME280;67231;59.144;37.934;2023-12-22T02:03:13;97750.44;;;-0.08;82.26
77869;BME280;67231;59.144;37.934;2023-12-22T02:05:44;97747.69;;;-0.06;82.46
77869;BME280;67231;59.144;37.934;2023-12-22T02:08:11;97747.56;;;-0.05;82.59
77869;BME280;67231;59.144;37.934;2023-12-22T02:10:38;97756.34;;;-0.06;82.59
77869;BME280;67231;59.144;37.934;2023-12-22T02:13:05;97752.91;;;-0.06;82.35
77869;BME280;67231;59.144;37.934;2023-12-22T02:15:33;97747.84;;;-0.08;82.12
77869;BME280;67231;59.144;37.934;2023-12-22T02:18:10;97754.13;;;-0.10;82.39
77869;BME280;67231;59.144;37.934;2023-12-22T02:20:58;97760.16;;;-0.10;82.78
77869;BME280;67231;59.144;37.934;2023-12-22T02:23:25;97757.56;;;-0.10;82.11
77869;BME280;67231;59.144;37.934;2023-12-22T02:25:57;97758.53;;;-0.11;82.26
77869;BME280;67231;59.144;37.934;2023-12-22T02:28:30;97751.81;;;-0.13;82.40
77869;BME280;67231;59.144;37.934;2023-12-22T02:31:16;97756.22;;;-0.14;82.53
77869;BME280;67231;59.144;37.934;2023-12-22T02:33:46;97745.78;;;-0.14;82.77
77869;BME280;67231;59.144;37.934;2023-12-22T02:36:15;97748.13;;;-0.11;82.43
77869;BME280;67231;59.144;37.934;2023-12-22T02:38:44;97743.72;;;-0.10;82.40
77869;BME280;67231;59.144;37.934;2023-12-22T02:41:12;97748.78;;;-0.09;82.43
77869;BME280;67231;59.144;37.934;2023-12-22T02:43:39;97757.41;;;-0.08;82.64
77869;BME280;67231;59.144;37.934;2023-12-22T02:46:13;97754.00;;;-0.09;82.32
77869;BME280;67231;59.144;37.934;2023-12-22T02:48:39;97744.25;;;-0.07;82.43
77869;BME280;67231;59.144;37.934;2023-12-22T02:51:06;97746.19;;;-0.09;81.95
77869;BME280;67231;59.144;37.934;2023-12-22T02:53:32;97755.94;;;-0.11;82.03
77869;BME280;67231;59.144;37.934;2023-12-22T02:55:59;97756.22;;;-0.14;82.33
77869;BME280;67231;59.144;37.934;2023-12-22T02:58:25;97755.53;;;-0.16;82.42
77869;BME280;67231;59.144;37.934;2023-12-22T03:00:52;97755.81;;;-0.19;82.63
77869;BME280;67231;59.144;37.934;2023-12-22T03:03:18;97761.03;;;-0.19;82.22
77869;BME280;67231;59.144;37.934;2023-12-22T03:05:45;97762.13;;;-0.22;82.16
77869;BME280;67231;59.144;37.934;2023-12-22T03:08:11;97763.78;;;-0.30;82.10
77869;BME280;67231;59.144;37.934;2023-12-22T03:10:37;97762.56;;;-0.36;82.41
77869;BME280;67231;59.144;37.934;2023-12-22T03:13:04;97770.22;;;-0.34;82.69
77869;BME280;67231;59.144;37.934;2023-12-22T03:15:31;97770.91;;;-0.32;82.95
77869;BME280;67231;59.144;37.934;2023-12-22T03:17:57;97771.47;;;-0.29;82.55
77869;BME280;67231;59.144;37.934;2023-12-22T03:20:24;97761.59;;;-0.25;82.38
77869;BME280;67231;59.144;37.934;2023-12-22T03:22:51;97770.88;;;-0.23;82.76
77869;BME280;67231;59.144;37.934;2023-12-22T03:25:17;97780.09;;;-0.19;82.51
77869;BME280;67231;59.144;37.934;2023-12-22T03:27:44;97776.41;;;-0.16;82.53
77869;BME280;67231;59.144;37.934;2023-12-22T03:30:11;97772.13;;;-0.17;82.52
77869;BME280;67231;59.144;37.934;2023-12-22T03:32:37;97766.25;;;-0.19;82.63
77869;BME280;67231;59.144;37.934;2023-12-22T03:35:04;97763.06;;;-0.23;82.79
77869;BME280;67231;59.144;37.934;2023-12-22T03:37:32;97760.31;;;-0.21;82.54
77869;BME280;67231;59.144;37.934;2023-12-22T03:39:59;97764.06;;;-0.24;82.57
77869;BME280;67231;59.144;37.934;2023-12-22T03:42:26;97778.28;;;-0.18;82.74
77869;BME280;67231;59.144;37.934;2023-12-22T03:44:52;97775.41;;;-0.15;82.73
77869;BME280;67231;59.144;37.934;2023-12-22T03:47:19;97776.94;;;-0.12;82.43
77869;BME280;67231;59.144;37.934;2023-12-22T03:49:45;97767.84;;;-0.08;82.80
77869;BME280;67231;59.144;37.934;2023-12-22T03:52:12;97773.75;;;-0.06;82.25
77869;BME280;67231;59.144;37.934;2023-12-22T03:54:39;97782.13;;;-0.03;82.23
77869;BME280;67231;59.144;37.934;2023-12-22T03:57:05;97771.69;;;-0.03;82.20
77869;BME280;67231;59.144;37.934;2023-12-22T03:59:32;97776.38;;;-0.06;82.18
77869;BME280;67231;59.144;37.934;2023-12-22T04:01:59;97771.44;;;-0.09;82.15
77869;BME280;67231;59.144;37.934;2023-12-22T04:04:27;97778.28;;;-0.08;82.17
77869;BME280;67231;59.144;37.934;2023-12-22T04:06:54;97773.66;;;-0.14;81.61
77869;BME280;67231;59.144;37.934;2023-12-22T04:09:21;97772.81;;;-0.15;82.12
77869;BME280;67231;59.144;37.934;2023-12-22T04:11:47;97779.00;;;-0.16;81.98
77869;BME280;67231;59.144;37.934;2023-12-22T04:14:14;97778.56;;;-0.21;82.33
77869;BME280;67231;59.144;37.934;2023-12-22T04:16:41;97776.38;;;-0.26;82.10
77869;BME280;67231;59.144;37.934;2023-12-22T04:19:08;97761.59;;;-0.25;82.44
77869;BME280;67231;59.144;37.934;2023-12-22T04:21:34;97772.81;;;-0.25;82.18
77869;BME280;67231;59.144;37.934;2023-12-22T04:24:00;97776.38;;;-0.26;82.58
77869;BME280;67231;59.144;37.934;2023-12-22T04:26:27;97773.34;;;-0.21;82.15
77869;BME280;67231;59.144;37.934;2023-12-22T04:28:53;97780.75;;;-0.16;82.17
77869;BME280;67231;59.144;37.934;2023-12-22T04:31:19;97790.09;;;-0.14;82.56
77869;BME280;67231;59.144;37.934;2023-12-22T04:33:46;97785.97;;;-0.16;82.25
77869;BME280;67231;59.144;37.934;2023-12-22T04:36:12;97785.97;;;-0.16;82.02
77869;BME280;67231;59.144;37.934;2023-12-22T04:38:39;97783.22;;;-0.15;82.24
77869;BME280;67231;59.144;37.934;2023-12-22T04:41:07;97794.63;;;-0.16;82.29
77869;BME280;67231;59.144;37.934;2023-12-22T04:43:33;97785.97;;;-0.16;82.27
77869;BME280;67231;59.144;37.934;2023-12-22T04:46:05;97781.59;;;-0.16;81.91
77869;BME280;67231;59.144;37.934;2023-12-22T04:48:31;97779.81;;;-0.15;81.74
77869;BME280;67231;59.144;37.934;2023-12-22T04:50:59;97784.88;;;-0.14;82.24
77869;BME280;67231;59.144;37.934;2023-12-22T04:53:25;97776.41;;;-0.16;81.82
77869;BME280;67231;59.144;37.934;2023-12-22T04:55:52;97773.94;;;-0.17;81.71
77869;BME280;67231;59.144;37.934;2023-12-22T04:58:18;97773.50;;;-0.23;81.77
77869;BME280;67231;59.144;37.934;2023-12-22T05:00:44;97773.63;;;-0.24;82.15
77869;BME280;67231;59.144;37.934;2023-12-22T05:03:11;97772.00;;;-0.25;82.13
77869;BME280;67231;59.144;37.934;2023-12-22T05:05:37;97777.22;;;-0.25;81.88
77869;BME280;67231;59.144;37.934;2023-12-22T05:08:04;97774.47;;;-0.24;81.96
77869;BME280;67231;59.144;37.934;2023-12-22T05:10:30;97768.41;;;-0.24;81.65
77869;BME280;67231;59.144;37.934;2023-12-22T05:12:57;97783.09;;;-0.23;82.23
77869;BME280;67231;59.144;37.934;2023-12-22T05:15:23;97765.97;;;-0.26;81.95
77869;BME280;67231;59.144;37.934;2023-12-22T05:17:50;97773.38;;;-0.31;81.99
77869;BME280;67231;59.144;37.934;2023-12-22T05:20:16;97766.69;;;-0.33;81.75
77869;BME280;67231;59.144;37.934;2023-12-22T05:22:43;97763.38;;;-0.35;81.86
77869;BME280;67231;59.144;37.934;2023-12-22T05:25:09;97770.66;;;-0.39;81.52
77869;BME280;67231;59.144;37.934;2023-12-22T05:27:38;97763.25;;;-0.44;81.77
77869;BME280;67231;59.144;37.934;2023-12-22T05:30:05;97772.31;;;-0.48;81.75
77869;BME280;67231;59.144;37.934;2023-12-22T05:32:32;97786.56;;;-0.52;81.94
77869;BME280;67231;59.144;37.934;2023-12-22T05:34:59;97784.50;;;-0.58;81.52
77869;BME280;67231;59.144;37.934;2023-12-22T05:37:25;97778.06;;;-0.64;81.40
77869;BME280;67231;59.144;37.934;2023-12-22T05:39:52;97770.38;;;-0.65;81.34
77869;BME280;67231;59.144;37.934;2023-12-22T05:42:19;97776.81;;;-0.69;81.45
77869;BME280;67231;59.144;37.934;2023-12-22T05:44:45;97783.00;;;-0.70;81.26
77869;BME280;67231;59.144;37.934;2023-12-22T05:47:16;97783.94;;;-0.71;81.40
77869;BME280;67231;59.144;37.934;2023-12-22T05:49:43;97784.09;;;-0.73;81.60
77869;BME280;67231;59.144;37.934;2023-12-22T05:52:11;97774.22;;;-0.69;81.92
77869;BME280;67231;59.144;37.934;2023-12-22T05:54:38;97772.31;;;-0.67;81.96
77869;BME280;67231;59.144;37.934;2023-12-22T05:57:05;97782.44;;;-0.64;81.80
77869;BME280;67231;59.144;37.934;2023-12-22T05:59:32;97784.50;;;-0.58;81.76
77869;BME280;67231;59.144;37.934;2023-12-22T06:02:00;97770.25;;;-0.54;81.53
77869;BME280;67231;59.144;37.934;2023-12-22T06:04:27;97775.88;;;-0.49;81.28
77869;BME280;67231;59.144;37.934;2023-12-22T06:06:54;97781.47;;;-0.44;80.85
77869;BME280;67231;59.144;37.934;2023-12-22T06:09:20;97784.47;;;-0.39;81.22
77869;BME280;67231;59.144;37.934;2023-12-22T06:11:48;97774.63;;;-0.35;81.43
77869;BME280;67231;59.144;37.934;2023-12-22T06:14:15;97778.72;;;-0.32;81.29
77869;BME280;67231;59.144;37.934;2023-12-22T06:16:44;97776.69;;;-0.29;81.16
77869;BME280;67231;59.144;37.934;2023-12-22T06:19:11;97778.84;;;-0.24;81.47
77869;BME280;67231;59.144;37.934;2023-12-22T06:21:39;97791.31;;;-0.18;81.15
77869;BME280;67231;59.144;37.934;2023-12-22T06:24:06;97782.56;;;-0.17;80.98
77869;BME280;67231;59.144;37.934;2023-12-22T06:26:34;97787.22;;;-0.11;80.86
77869;BME280;67231;59.144;37.934;2023-12-22T06:29:00;97791.16;;;-0.07;81.11
77869;BME280;67231;59.144;37.934;2023-12-22T06:31:27;97786.38;;;-0.02;80.63
77869;BME280;67231;59.144;37.934;2023-12-22T06:33:53;97785.13;;;0.03;81.02
77869;BME280;67231;59.144;37.934;2023-12-22T06:36:24;97772.75;;;0.05;80.47
77869;BME280;67231;59.144;37.934;2023-12-22T06:38:52;97787.16;;;0.09;80.73
77869;BME280;67231;59.144;37.934;2023-12-22T06:41:24;97789.88;;;0.17;80.30
77869;BME280;67231;59.144;37.934;2023-12-22T06:43:51;97789.75;;;0.18;80.29
77869;BME280;67231;59.144;37.934;2023-12-22T06:46:18;97788.94;;;0.18;80.24
77869;BME280;67231;59.144;37.934;2023-12-22T06:48:45;97799.38;;;0.18;80.38
77869;BME280;67231;59.144;37.934;2023-12-22T06:51:22;97807.34;;;0.16;80.53
77869;BME280;67231;59.144;37.934;2023-12-22T06:53:50;97785.34;;;0.19;80.35
77869;BME280;67231;59.144;37.934;2023-12-22T06:56:18;97789.59;;;0.20;80.62
77869;BME280;67231;59.144;37.934;2023-12-22T06:58:44;97791.94;;;0.23;80.13
77869;BME280;67231;59.144;37.934;2023-12-22T07:01:18;97795.22;;;0.25;79.98
77869;BME280;67231;59.144;37.934;2023-12-22T07:03:47;97790.84;;;0.26;80.34
77869;BME280;67231;59.144;37.934;2023-12-22T07:06:17;97786.28;;;0.28;80.29
77869;BME280;67231;59.144;37.934;2023-12-22T07:08:44;97793.00;;;0.30;80.19
77869;BME280;67231;59.144;37.934;2023-12-22T07:11:23;97780.66;;;0.32;79.95
77869;BME280;67231;59.144;37.934;2023-12-22T07:13:49;97790.81;;;0.35;80.49
77869;BME280;67231;59.144;37.934;2023-12-22T07:16:16;97795.75;;;0.39;80.15
77869;BME280;67231;59.144;37.934;2023-12-22T07:18:43;97784.31;;;0.40;80.19
77869;BME280;67231;59.144;37.934;2023-12-22T07:21:16;97791.06;;;0.42;80.07
77869;BME280;67231;59.144;37.934;2023-12-22T07:23:44;97787.31;;;0.45;79.83
77869;BME280;67231;59.144;37.934;2023-12-22T07:26:10;97783.09;;;0.44;80.27
77869;BME280;67231;59.144;37.934;2023-12-22T07:28:39;97788.97;;;0.46;80.18
77869;BME280;67231;59.144;37.934;2023-12-22T07:31:06;97781.44;;;0.43;80.27
77869;BME280;67231;59.144;37.934;2023-12-22T07:33:32;97783.91;;;0.44;79.67
77869;BME280;67231;59.144;37.934;2023-12-22T07:35:59;97784.03;;;0.43;79.46
77869;BME280;67231;59.144;37.934;2023-12-22T07:38:25;97782.81;;;0.47;79.44
77869;BME280;67231;59.144;37.934;2023-12-22T07:40:52;97789.66;;;0.48;79.80
77869;BME280;67231;59.144;37.934;2023-12-22T07:43:18;97783.47;;;0.49;79.34
77869;BME280;67231;59.144;37.934;2023-12-22T07:45:44;97806.66;;;0.52;79.55
77869;BME280;67231;59.144;37.934;2023-12-22T07:48:11;97773.56;;;0.52;79.95
77869;BME280;67231;59.144;37.934;2023-12-22T07:50:37;97783.84;;;0.54;79.50
77869;BME280;67231;59.144;37.934;2023-12-22T07:53:04;97769.72;;;0.57;79.56
77869;BME280;67231;59.144;37.934;2023-12-22T07:55:30;97786.84;;;0.59;79.82
77869;BME280;67231;59.144;37.934;2023-12-22T07:57:56;97786.84;;;0.59;79.39
77869;BME280;67231;59.144;37.934;2023-12-22T08:00:23;97786.03;;;0.59;79.31
77869;BME280;67231;59.144;37.934;2023-12-22T08:02:49;97786.84;;;0.59;79.45
77869;BME280;67231;59.144;37.934;2023-12-22T08:05:16;97780.81;;;0.59;79.19
77869;BME280;67231;59.144;37.934;2023-12-22T08:07:42;97778.34;;;0.57;78.96
77869;BME280;67231;59.144;37.934;2023-12-22T08:10:09;97777.25;;;0.60;78.59
77869;BME280;67231;59.144;37.934;2023-12-22T08:12:35;97785.22;;;0.58;79.13
77869;BME280;67231;59.144;37.934;2023-12-22T08:15:02;97762.41;;;0.60;78.65
77869;BME280;67231;59.144;37.934;2023-12-22T08:17:31;97756.91;;;0.63;79.10
77869;BME280;67231;59.144;37.934;2023-12-22T08:19:57;97757.56;;;0.65;78.74
77869;BME280;67231;59.144;37.934;2023-12-22T08:22:24;97766.25;;;0.66;78.39
77869;BME280;67231;59.144;37.934;2023-12-22T08:24:50;97765.91;;;0.69;78.96
77869;BME280;67231;59.144;37.934;2023-12-22T08:27:16;97757.94;;;0.70;78.62
77869;BME280;67231;59.144;37.934;2023-12-22T08:29:43;97755.88;;;0.74;78.67
77869;BME280;67231;59.144;37.934;2023-12-22T08:32:10;97756.84;;;0.73;78.45
77869;BME280;67231;59.144;37.934;2023-12-22T08:34:37;97760.41;;;0.72;78.49
77869;BME280;67231;59.144;37.934;2023-12-22T08:37:03;97758.66;;;0.72;78.44
77869;BME280;67231;59.144;37.934;2023-12-22T08:39:30;97755.06;;;0.73;78.15
77869;BME280;67231;59.144;37.934;2023-12-22T08:41:57;97750.81;;;0.72;78.24
77869;BME280;67231;59.144;37.934;2023-12-22T08:44:24;97754.75;;;0.77;78.42
77869;BME280;67231;59.144;37.934;2023-12-22T08:46:50;97736.50;;;0.77;78.08
77869;BME280;67231;59.144;37.934;2023-12-22T08:49:17;97731.97;;;0.79;78.38
77869;BME280;67231;59.144;37.934;2023-12-22T08:51:46;97731.63;;;0.82;77.71
77869;BME280;67231;59.144;37.934;2023-12-22T08:54:12;97733.44;;;0.81;78.12
77869;BME280;67231;59.144;37.934;2023-12-22T08:56:39;97719.94;;;0.86;77.95
77869;BME280;67231;59.144;37.934;2023-12-22T08:59:05;97729.28;;;0.88;77.40
77869;BME280;67231;59.144;37.934;2023-12-22T09:01:37;97724.59;;;0.92;77.22
77869;BME280;67231;59.144;37.934;2023-12-22T09:04:04;97714.13;;;0.92;77.13
77869;BME280;67231;59.144;37.934;2023-12-22T09:06:34;97720.19;;;0.93;77.25
77869;BME280;67231;59.144;37.934;2023-12-22T09:09:00;97715.75;;;0.93;77.29
77869;BME280;67231;59.144;37.934;2023-12-22T09:11:27;97710.88;;;0.90;77.20
77869;BME280;67231;59.144;37.934;2023-12-22T09:13:53;97710.88;;;0.90;77.30
77869;BME280;67231;59.144;37.934;2023-12-22T09:16:24;97702.03;;;0.91;77.19
77869;BME280;67231;59.144;37.934;2023-12-22T09:18:51;97704.66;;;0.91;77.13
77869;BME280;67231;59.144;37.934;2023-12-22T09:21:18;97701.22;;;0.90;76.75
77869;BME280;67231;59.144;37.934;2023-12-22T09:23:48;97713.16;;;0.93;77.04
77869;BME280;67231;59.144;37.934;2023-12-22T09:26:16;97708.63;;;0.95;76.89
77869;BME280;67231;59.144;37.934;2023-12-22T09:28:42;97708.78;;;0.94;76.28
77869;BME280;67231;59.144;37.934;2023-12-22T09:31:09;97705.03;;;0.96;76.58
77869;BME280;67231;59.144;37.934;2023-12-22T09:33:36;97705.03;;;0.96;76.66
77869;BME280;67231;59.144;37.934;2023-12-22T09:36:02;97707.34;;;0.99;76.58
77869;BME280;67231;59.144;37.934;2023-12-22T09:38:29;97694.97;;;1.01;76.28
77869;BME280;67231;59.144;37.934;2023-12-22T09:40:56;97704.44;;;1.02;76.20
77869;BME280;67231;59.144;37.934;2023-12-22T09:43:23;97689.63;;;1.03;76.51
77869;BME280;67231;59.144;37.934;2023-12-22T09:45:51;97702.53;;;1.04;76.08
77869;BME280;67231;59.144;37.934;2023-12-22T09:48:20;97698.25;;;1.03;75.82
77869;BME280;67231;59.144;37.934;2023-12-22T09:50:54;97684.38;;;1.03;75.68
77869;BME280;67231;59.144;37.934;2023-12-22T09:53:21;97677.38;;;1.03;75.15
77869;BME280;67231;59.144;37.934;2023-12-22T09:55:50;97681.31;;;1.07;75.09
77869;BME280;67231;59.144;37.934;2023-12-22T09:58:17;97683.75;;;1.09;75.11
77869;BME280;67231;59.144;37.934;2023-12-22T10:00:43;97681.31;;;1.07;75.31
77869;BME280;67231;59.144;37.934;2023-12-22T10:03:11;97687.66;;;1.05;75.07
77869;BME280;67231;59.144;37.934;2023-12-22T10:05:42;97682.28;;;1.06;75.17
77869;BME280;67231;59.144;37.934;2023-12-22T10:08:09;97677.22;;;1.05;75.05
77869;BME280;67231;59.144;37.934;2023-12-22T10:10:39;97667.06;;;1.02;75.24
77869;BME280;67231;59.144;37.934;2023-12-22T10:13:11;97680.63;;;1.05;75.48
77869;BME280;67231;59.144;37.934;2023-12-22T10:15:41;97680.19;;;1.10;75.54
77869;BME280;67231;59.144;37.934;2023-12-22T10:18:09;97658.50;;;1.09;75.31
77869;BME280;67231;59.144;37.934;2023-12-22T10:20:36;97649.66;;;1.11;75.05
77869;BME280;67231;59.144;37.934;2023-12-22T10:23:03;97666.69;;;1.15;74.99
77869;BME280;67231;59.144;37.934;2023-12-22T10:25:30;97649.91;;;1.17;74.85
77869;BME280;67231;59.144;37.934;2023-12-22T10:27:56;97651.69;;;1.17;74.74
77869;BME280;67231;59.144;37.934;2023-12-22T10:30:23;97651.69;;;1.17;74.54
77869;BME280;67231;59.144;37.934;2023-12-22T10:32:52;97653.47;;;1.16;74.18
77869;BME280;67231;59.144;37.934;2023-12-22T10:35:22;97643.03;;;1.16;74.38
77869;BME280;67231;59.144;37.934;2023-12-22T10:37:49;97657.06;;;1.15;74.41
77869;BME280;67231;59.144;37.934;2023-12-22T10:40:20;97636.31;;;1.14;74.27
77869;BME280;67231;59.144;37.934;2023-12-22T10:42:48;97647.75;;;1.13;74.29
77869;BME280;67231;59.144;37.934;2023-12-22T10:45:15;97644.13;;;1.14;74.29
77869;BME280;67231;59.144;37.934;2023-12-22T10:47:43;97633.69;;;1.14;74.42
77869;BME280;67231;59.144;37.934;2023-12-22T10:50:12;97651.31;;;1.12;74.17
77869;BME280;67231;59.144;37.934;2023-12-22T10:52:41;97650.66;;;1.09;74.05
77869;BME280;67231;59.144;37.934;2023-12-22T10:55:15;97644.75;;;1.07;74.16
77869;BME280;67231;59.144;37.934;2023-12-22T10:57:47;97646.41;;;1.08;74.20
77869;BME280;67231;59.144;37.934;2023-12-22T11:00:17;97634.28;;;1.07;74.38
77869;BME280;67231;59.144;37.934;2023-12-22T11:02:47;97643.13;;;1.06;74.26
77869;BME280;67231;59.144;37.934;2023-12-22T11:05:15;97647.50;;;1.06;74.17
77869;BME280;67231;59.144;37.934;2023-12-22T11:07:48;97641.47;;;1.05;74.26
77869;BME280;67231;59.144;37.934;2023-12-22T11:10:18;97634.63;;;1.04;74.20
77869;BME280;67231;59.144;37.934;2023-12-22T11:12:47;97632.81;;;1.05;74.11
77869;BME280;67231;59.144;37.934;2023-12-22T11:15:15;97647.69;;;1.04;74.41
77869;BME280;67231;59.144;37.934;2023-12-22T11:17:43;97637.38;;;1.03;74.47
77869;BME280;67231;59.144;37.934;2023-12-22T11:20:12;97650.59;;;1.01;74.47
77869;BME280;67231;59.144;37.934;2023-12-22T11:22:40;97646.31;;;1.00;74.26
77869;BME280;67231;59.144;37.934;2023-12-22T11:25:08;97638.50;;;1.00;74.47
77869;BME280;67231;59.144;37.934;2023-12-22T11:27:37;97640.44;;;0.98;74.30
77869;BME280;67231;59.144;37.934;2023-12-22T11:30:07;97665.19;;;0.94;73.88
77869;BME280;67231;59.144;37.934;2023-12-22T11:32:35;97663.53;;;0.93;74.53
77869;BME280;67231;59.144;37.934;2023-12-22T11:35:03;97626.34;;;0.91;74.67
77869;BME280;67231;59.144;37.934;2023-12-22T11:37:31;97636.78;;;0.91;74.34
77869;BME280;67231;59.144;37.934;2023-12-22T11:39:59;97627.31;;;0.90;74.81
77869;BME280;67231;59.144;37.934;2023-12-22T11:42:29;97636.94;;;0.89;74.89
77869;BME280;67231;59.144;37.934;2023-12-22T11:44:58;97634.47;;;0.88;74.57
77869;BME280;67231;59.144;37.934;2023-12-22T11:47:25;97625.81;;;0.87;74.61
77869;BME280;67231;59.144;37.934;2023-12-22T11:49:55;97628.59;;;0.86;74.45
77869;BME280;67231;59.144;37.934;2023-12-22T11:52:26;97637.22;;;0.86;74.66
77869;BME280;67231;59.144;37.934;2023-12-22T11:54:57;97634.75;;;0.85;74.35
77869;BME280;67231;59.144;37.934;2023-12-22T12:00:08;97625.59;;;0.81;74.74
77869;BME280;67231;59.144;37.934;2023-12-22T12:02:41;97628.22;;;0.81;74.67
77869;BME280;67231;59.144;37.934;2023-12-22T12:05:10;97641.41;;;0.79;75.04
77869;BME280;67231;59.144;37.934;2023-12-22T12:07:47;97617.13;;;0.79;74.70
77869;BME280;67231;59.144;37.934;2023-12-22T12:13:11;97621.50;;;0.78;75.02
77869;BME280;67231;59.144;37.934;2023-12-22T12:15:38;97641.41;;;0.79;74.72
77869;BME280;67231;59.144;37.934;2023-12-22T12:18:05;97623.16;;;0.79;74.65
77869;BME280;67231;59.144;37.934;2023-12-22T12:20:35;97629.84;;;0.82;74.43
77869;BME280;67231;59.144;37.934;2023-12-22T12:23:03;97634.91;;;0.83;74.91
77869;BME280;67231;59.144;37.934;2023-12-22T12:25:32;97641.94;;;0.83;74.73
77869;BME280;67231;59.144;37.934;2023-12-22T12:28:05;97637.38;;;0.85;74.64
77869;BME280;67231;59.144;37.934;2023-12-22T12:30:36;97625.97;;;0.86;74.46
77869;BME280;67231;59.144;37.934;2023-12-22T12:33:11;97624.03;;;0.88;74.48
77869;BME280;67231;59.144;37.934;2023-12-22T12:35:39;97626.63;;;0.88;74.53
77869;BME280;67231;59.144;37.934;2023-12-22T12:38:09;97622.09;;;0.90;74.54
77869;BME280;67231;59.144;37.934;2023-12-22T12:40:39;97625.38;;;0.92;74.56
77869;BME280;67231;59.144;37.934;2023-12-22T12:43:06;97633.06;;;0.94;74.39
77869;BME280;67231;59.144;37.934;2023-12-22T12:45:33;97620.97;;;0.93;74.56
77869;BME280;67231;59.144;37.934;2023-12-22T12:48:03;97613.78;;;0.95;74.20
77869;BME280;67231;59.144;37.934;2023-12-22T12:50:30;97613.78;;;0.95;74.46
77869;BME280;67231;59.144;37.934;2023-12-22T12:53:00;97612.97;;;0.94;74.29
77869;BME280;67231;59.144;37.934;2023-12-22T12:55:26;97603.34;;;0.95;74.55
77869;BME280;67231;59.144;37.934;2023-12-22T12:57:54;97603.19;;;0.96;74.39
77869;BME280;67231;59.144;37.934;2023-12-22T13:00:26;97612.97;;;0.94;74.65
77869;BME280;67231;59.144;37.934;2023-12-22T13:02:59;97616.25;;;0.96;74.29
77869;BME280;67231;59.144;37.934;2023-12-22T13:05:29;97614.63;;;0.95;74.54